Time;durP1;ratioP1;P1;durP2;ratioP2;P2;SDS_P1;SDS_P2;PMS_P1;PMS_P2;Temp;Humidity;BMP_temperature;BMP_pressure;BME280_temperature;BME280_humidity;BME280_pressure;Samples;Min_cycle;Max_cycle;Signal;HPM_P1;HPM_P2
2022/09/08 00:00:58;;;;;;;10.27;2.80;;;21.70;99.90;;;;;;6277604;22;20007;-76
2022/09/08 00:03:27;;;;;;;6.00;2.88;;;21.70;99.90;;;;;;6304640;22;19995;-76
2022/09/08 00:06:01;;;;;;;7.43;3.30;;;21.70;99.90;;;;;;6277586;22;20010;-75
2022/09/08 00:08:27;;;;;;;5.93;3.40;;;21.70;99.90;;;;;;6304782;22;20000;-76
2022/09/08 00:10:56;;;;;;;6.05;3.40;;;21.70;99.90;;;;;;6277476;22;20007;-76
2022/09/08 00:13:23;;;;;;;5.90;3.00;;;21.70;99.90;;;;;;6304912;22;20003;-76
2022/09/08 00:15:49;;;;;;;6.47;3.55;;;21.70;99.90;;;;;;6304673;22;20390;-76
2022/09/08 00:18:16;;;;;;;7.05;3.17;;;21.60;99.90;;;;;;6304855;22;20007;-75
2022/09/08 00:20:42;;;;;;;6.25;2.83;;;21.60;99.90;;;;;;6305131;22;19995;-75
2022/09/08 00:23:07;;;;;;;4.93;2.78;;;21.60;99.90;;;;;;6304773;22;20007;-75
2022/09/08 00:25:33;;;;;;;4.85;2.63;;;21.60;99.90;;;;;;6304819;22;20021;-75
2022/09/08 00:27:59;;;;;;;4.88;2.85;;;21.50;99.90;;;;;;6304640;22;20006;-76
2022/09/08 00:30:24;;;;;;;6.30;2.90;;;21.50;99.90;;;;;;6305043;22;20022;-75
2022/09/08 00:32:50;;;;;;;5.72;2.88;;;21.50;99.90;;;;;;6304222;22;20014;-75
2022/09/08 00:35:18;;;;;;;4.55;2.85;;;21.50;99.90;;;;;;6304672;22;20010;-75
2022/09/08 00:37:46;;;;;;;5.50;3.10;;;21.40;99.90;;;;;;6277224;22;20454;-75
2022/09/08 00:40:13;;;;;;;5.32;3.13;;;21.40;99.90;;;;;;6277646;22;20014;-75
2022/09/08 00:42:40;;;;;;;5.25;3.30;;;21.40;99.90;;;;;;6304513;22;20451;-75
2022/09/08 00:45:08;;;;;;;3.67;2.42;;;21.40;99.90;;;;;;6304912;22;20027;-75
2022/09/08 00:47:58;;;;;;;3.65;2.65;;;21.40;99.90;;;;;;6304413;22;19999;-75
2022/09/08 00:50:27;;;;;;;4.32;2.95;;;21.40;99.90;;;;;;6305128;22;20035;-75
2022/09/08 00:53:00;;;;;;;4.80;3.00;;;21.40;99.90;;;;;;6304386;22;20003;-75
2022/09/08 00:55:33;;;;;;;5.88;2.78;;;21.40;99.90;;;;;;6304698;22;20431;-76
2022/09/08 00:57:58;;;;;;;;;;;21.40;99.90;;;;;;6304859;22;20003;-75
2022/09/08 01:00:24;;;;;;;6.55;2.75;;;21.40;99.90;;;;;;6304683;22;19936;-75
2022/09/08 01:02:50;;;;;;;4.97;2.75;;;21.50;99.90;;;;;;6304206;22;20003;-75
2022/09/08 01:05:20;;;;;;;4.05;2.40;;;21.50;99.90;;;;;;6304887;22;20003;-75
2022/09/08 01:14:00;;;;;;;9.40;3.50;;;21.60;99.90;;;;;;6304799;22;20019;-75
2022/09/08 01:16:27;;;;;;;4.97;2.88;;;21.60;99.90;;;;;;6304390;22;20094;-75
2022/09/08 01:18:56;;;;;;;5.57;3.40;;;21.60;99.90;;;;;;6304900;22;20029;-75
2022/09/08 01:21:47;;;;;;;4.45;2.85;;;21.70;99.90;;;;;;6306362;22;20006;-75
2022/09/08 01:24:13;;;;;;;6.85;2.50;;;21.70;99.90;;;;;;6292567;22;20003;-75
2022/09/08 01:26:46;;;;;;;5.78;2.55;;;21.70;99.80;;;;;;6305904;22;20026;-75
2022/09/08 01:29:14;;;;;;;4.88;2.78;;;21.80;99.50;;;;;;6306382;22;20041;-75
2022/09/08 01:31:42;;;;;;;3.63;2.63;;;21.80;99.50;;;;;;6306167;22;20003;-74
2022/09/08 01:34:27;;;;;;;4.28;2.45;;;21.80;99.70;;;;;;6306095;22;20026;-75
2022/09/08 01:36:57;;;;;;;5.72;2.38;;;21.80;99.70;;;;;;6305874;22;20007;-75
2022/09/08 01:39:23;;;;;;;5.93;2.45;;;21.90;99.70;;;;;;6306553;22;20001;-75
2022/09/08 01:41:49;;;;;;;5.43;2.65;;;21.90;99.80;;;;;;6278373;22;20019;-75
2022/09/08 01:44:14;;;;;;;4.85;2.85;;;21.90;99.50;;;;;;6279186;22;19999;-75
2022/09/08 01:46:40;;;;;;;4.10;2.75;;;21.90;99.90;;;;;;6305915;22;19999;-75
2022/09/08 01:49:06;;;;;;;4.55;2.78;;;22.00;99.40;;;;;;6305765;22;20010;-75
2022/09/08 01:51:33;;;;;;;2.95;2.53;;;22.00;99.40;;;;;;6305875;22;20000;-75
2022/09/08 01:53:59;;;;;;;5.10;2.88;;;22.00;99.00;;;;;;6306101;22;20000;-75
2022/09/08 01:56:25;;;;;;;4.28;3.17;;;22.10;99.30;;;;;;6278440;22;20015;-75
2022/09/08 01:58:50;;;;;;;7.63;2.67;;;22.10;98.80;;;;;;6305947;22;20082;-75
2022/09/08 02:01:16;;;;;;;5.05;2.65;;;22.20;98.70;;;;;;6305776;22;19999;-75
2022/09/08 02:03:42;;;;;;;3.90;2.60;;;22.20;98.60;;;;;;6305964;22;19995;-75
2022/09/08 02:06:08;;;;;;;2.83;2.45;;;22.20;98.50;;;;;;6305867;22;20013;-75
2022/09/08 02:08:34;;;;;;;4.22;2.35;;;22.30;98.40;;;;;;6278661;22;20003;-75
2022/09/08 02:11:00;;;;;;;2.92;2.13;;;22.20;98.40;;;;;;6305916;22;20034;-74
2022/09/08 02:13:27;;;;;;;5.32;2.63;;;22.20;98.20;;;;;;6305935;22;19996;-74
2022/09/08 02:16:07;;;;;;;4.05;2.70;;;22.20;98.40;;;;;;6305558;22;20434;-74
2022/09/08 02:18:33;;;;;;;5.07;2.75;;;22.10;98.50;;;;;;6305645;22;19996;-74
2022/09/08 02:21:10;;;;;;;4.25;2.70;;;22.10;98.50;;;;;;6278526;22;20007;-74
2022/09/08 02:23:38;;;;;;;8.95;3.08;;;22.00;98.50;;;;;;6278142;22;19999;-75
2022/09/08 02:26:04;;;;;;;6.85;2.47;;;22.00;98.30;;;;;;6305835;22;20011;-74
2022/09/08 02:28:30;;;;;;;4.20;2.42;;;21.80;98.30;;;;;;6278013;22;20053;-75
2022/09/08 02:30:58;;;;;;;5.78;2.28;;;21.80;98.40;;;;;;6305737;22;20087;-74
2022/09/08 02:33:24;;;;;;;3.70;2.65;;;21.70;98.40;;;;;;6304992;22;20086;-74
2022/09/08 02:35:50;;;;;;;3.60;2.30;;;21.70;98.40;;;;;;6305955;22;20043;-74
2022/09/08 02:38:16;;;;;;;4.07;2.65;;;21.70;98.60;;;;;;6277909;22;20074;-74
2022/09/08 02:40:42;;;;;;;5.38;2.42;;;21.60;98.80;;;;;;6306014;22;20048;-74
2022/09/08 02:43:09;;;;;;;4.18;2.75;;;21.60;99.00;;;;;;6305373;22;20010;-73
2022/09/08 02:45:44;;;;;;;5.90;2.53;;;21.60;98.80;;;;;;6305704;22;20019;-73
2022/09/08 02:48:10;;;;;;;4.25;2.60;;;21.50;99.00;;;;;;6305543;22;20257;-74
2022/09/08 02:50:36;;;;;;;3.45;2.50;;;21.60;99.00;;;;;;6305861;22;19999;-74
2022/09/08 02:53:01;;;;;;;7.05;2.70;;;21.60;98.70;;;;;;6305211;22;20385;-74
2022/09/08 02:55:27;;;;;;;5.70;2.70;;;21.60;98.90;;;;;;6278466;22;20011;-74
2022/09/08 02:57:53;;;;;;;3.47;2.70;;;21.60;99.00;;;;;;6305094;22;20010;-74
2022/09/08 03:00:20;;;;;;;6.82;2.42;;;21.50;99.10;;;;;;6305712;22;19999;-73
2022/09/08 03:02:46;;;;;;;5.15;2.10;;;21.40;99.20;;;;;;6304733;22;20003;-74
2022/09/08 03:05:13;;;;;;;5.15;2.60;;;21.30;99.50;;;;;;6305704;22;20003;-74
2022/09/08 03:07:39;;;;;;;4.30;2.30;;;21.30;99.50;;;;;;6304903;22;19995;-74
2022/09/08 03:10:06;;;;;;;3.67;2.25;;;21.20;99.30;;;;;;6305886;22;20061;-74
2022/09/08 03:12:33;;;;;;;5.38;2.30;;;21.10;99.30;;;;;;6277585;22;20000;-74
2022/09/08 03:14:59;;;;;;;4.95;2.30;;;21.10;99.40;;;;;;6305534;22;20069;-74
2022/09/08 03:17:25;;;;;;;3.22;2.38;;;21.00;99.80;;;;;;6304873;22;20426;-74
2022/09/08 03:19:54;;;;;;;3.20;2.28;;;21.00;99.80;;;;;;6277911;22;20253;-73
2022/09/08 03:22:20;;;;;;;4.65;2.83;;;21.00;99.90;;;;;;6304859;22;20078;-74
2022/09/08 03:24:46;;;;;;;7.18;3.10;;;21.00;99.90;;;;;;6305593;22;20026;-73
2022/09/08 03:27:12;;;;;;;5.93;2.72;;;20.90;99.70;;;;;;6304975;22;20371;-74
2022/09/08 03:29:38;;;;;;;4.45;2.83;;;20.90;99.50;;;;;;6305068;22;20003;-75
2022/09/08 03:32:04;;;;;;;4.75;2.65;;;20.90;99.50;;;;;;6304765;22;20042;-75
2022/09/08 03:34:30;;;;;;;4.05;2.92;;;20.90;99.60;;;;;;6304908;22;20326;-75
2022/09/08 03:36:55;;;;;;;7.88;2.78;;;20.80;99.60;;;;;;6304705;22;20011;-75
2022/09/08 03:39:21;;;;;;;5.53;3.00;;;20.80;99.70;;;;;;6305218;22;20045;-76
2022/09/08 03:41:47;;;;;;;4.00;2.70;;;20.80;99.80;;;;;;6304674;22;20219;-75
2022/09/08 03:44:13;;;;;;;4.15;2.72;;;20.90;99.90;;;;;;6305319;22;20000;-75
2022/09/08 03:46:39;;;;;;;5.72;2.30;;;20.90;99.70;;;;;;6304538;22;20333;-75
2022/09/08 03:49:05;;;;;;;5.55;2.72;;;21.00;99.50;;;;;;6305046;22;20078;-75
2022/09/08 03:51:31;;;;;;;5.75;2.20;;;21.00;99.60;;;;;;6304529;22;20010;-75
2022/09/08 03:56:45;;;;;;;5.43;2.28;;;21.10;99.60;;;;;;6304498;22;20149;-75
2022/09/08 03:59:10;;;;;;;6.57;2.63;;;21.10;99.50;;;;;;6277822;22;20311;-75
2022/09/08 04:01:36;;;;;;;9.25;2.78;;;21.20;99.40;;;;;;6277088;22;20029;-75
2022/09/08 04:04:03;;;;;;;4.70;2.67;;;21.30;99.90;;;;;;6304926;22;20411;-75
2022/09/08 04:06:29;;;;;;;4.13;2.83;;;21.20;99.90;;;;;;6304649;22;20003;-75
2022/09/08 04:08:55;;;;;;;3.10;2.75;;;21.20;99.90;;;;;;6305146;22;20411;-75
2022/09/08 04:11:20;;;;;;;2.92;2.33;;;21.20;99.90;;;;;;6304670;22;19999;-75
2022/09/08 04:13:47;;;;;;;5.13;2.58;;;21.20;99.90;;;;;;6305123;22;19995;-75
2022/09/08 04:16:12;;;;;;;8.90;2.72;;;21.20;99.90;;;;;;6304529;22;20014;-75
2022/09/08 04:18:38;;;;;;;3.47;2.40;;;21.10;99.90;;;;;;6305016;22;19995;-74
2022/09/08 04:21:05;;;;;;;5.20;2.53;;;21.10;99.90;;;;;;6305019;22;20377;-74
2022/09/08 04:23:31;;;;;;;4.47;2.80;;;21.10;99.90;;;;;;6304895;22;19991;-74
2022/09/08 04:26:11;;;;;;;7.53;3.08;;;21.00;99.90;;;;;;6277686;22;20013;-74
2022/09/08 04:28:37;;;;;;;8.98;3.38;;;21.10;99.90;;;;;;6277184;22;20422;-74
2022/09/08 04:31:09;;;;;;;5.93;2.90;;;21.10;99.90;;;;;;6277356;22;20029;-75
2022/09/08 04:33:35;;;;;;;4.75;2.38;;;21.10;99.70;;;;;;6304366;22;20499;-75
2022/09/08 04:36:13;;;;;;;6.97;2.50;;;21.10;99.80;;;;;;6304737;22;20043;-74
2022/09/08 04:38:40;;;;;;;3.17;2.55;;;21.10;99.90;;;;;;6304854;22;20007;-74
2022/09/08 04:41:08;;;;;;;4.28;2.40;;;21.00;99.80;;;;;;6304880;22;20007;-75
2022/09/08 04:43:35;;;;;;;7.70;3.03;;;21.10;99.90;;;;;;6304567;22;20300;-76
2022/09/08 04:46:06;;;;;;;3.80;2.65;;;21.10;99.80;;;;;;6304853;22;20452;-75
2022/09/08 04:48:32;;;;;;;3.40;2.70;;;21.10;99.60;;;;;;6304402;22;19999;-75
2022/09/08 04:50:59;;;;;;;3.40;2.53;;;21.10;99.60;;;;;;6277357;22;20007;-75
2022/09/08 04:53:26;;;;;;;5.20;2.85;;;21.20;99.50;;;;;;6304519;22;20030;-75
2022/09/08 04:55:53;;;;;;;3.97;2.67;;;21.10;99.50;;;;;;6306676;22;20014;-75
2022/09/08 04:58:19;;;;;;;5.60;2.92;;;21.20;99.70;;;;;;6279406;22;20007;-75
2022/09/08 05:00:45;;;;;;;4.32;2.78;;;21.20;99.70;;;;;;6306623;22;19999;-75
2022/09/08 05:03:11;;;;;;;5.00;3.40;;;21.20;99.50;;;;;;6306229;22;20200;-75
2022/09/08 05:05:38;;;;;;;8.10;3.20;;;21.30;99.50;;;;;;6279503;22;20003;-76
2022/09/08 05:08:04;;;;;;;4.05;2.83;;;21.30;99.60;;;;;;6305990;22;19999;-75
2022/09/08 05:10:33;;;;;;;3.50;2.58;;;21.40;99.20;;;;;;6306831;22;20023;-75
2022/09/08 05:12:59;;;;;;;6.63;3.20;;;21.50;98.90;;;;;;6278982;22;20006;-75
2022/09/08 05:15:25;;;;;;;7.43;2.80;;;21.60;98.90;;;;;;6306706;22;20076;-74
2022/09/08 05:17:52;;;;;;;6.00;3.25;;;21.70;98.50;;;;;;6305686;22;20006;-75
2022/09/08 05:20:18;;;;;;;8.38;3.03;;;21.80;98.40;;;;;;6279489;22;20018;-75
2022/09/08 05:22:44;;;;;;;5.05;3.35;;;22.00;98.00;;;;;;6305886;22;20014;-75
2022/09/08 05:25:10;;;;;;;9.55;2.92;;;22.00;97.40;;;;;;6306661;22;19991;-75
2022/09/08 05:27:36;;;;;;;5.90;2.72;;;22.20;97.50;;;;;;6306048;22;20029;-75
2022/09/08 05:30:01;;;;;;;6.32;2.90;;;22.30;96.70;;;;;;6306550;22;20023;-74
2022/09/08 05:32:27;;;;;;;6.82;3.78;;;22.40;96.10;;;;;;6305685;22;20011;-74
2022/09/08 05:34:53;;;;;;;18.85;3.50;;;22.50;96.00;;;;;;6306236;22;19999;-74
2022/09/08 05:37:19;;;;;;;5.50;3.10;;;22.70;96.10;;;;;;6306006;22;20049;-75
2022/09/08 05:39:46;;;;;;;10.65;3.58;;;22.90;95.50;;;;;;6306442;22;20025;-74
2022/09/08 05:42:12;;;;;;;18.23;4.50;;;23.00;95.70;;;;;;6303892;22;20072;-75
2022/09/08 05:44:38;;;;;;;45.72;32.40;;;23.00;95.50;;;;;;6301873;22;20754;-75
2022/09/08 05:47:04;;;;;;;37.45;20.67;;;23.10;95.20;;;;;;6301680;22;20076;-75
2022/09/08 05:49:31;;;;;;;10.35;5.50;;;23.20;95.10;;;;;;6302228;22;20038;-75
2022/09/08 05:51:58;;;;;;;11.93;3.85;;;23.30;94.80;;;;;;6301339;22;20018;-76
2022/09/08 05:54:24;;;;;;;17.88;6.18;;;23.40;94.10;;;;;;6302200;22;20037;-75
2022/09/08 05:56:50;;;;;;;7.97;4.00;;;23.40;94.50;;;;;;6300867;22;20011;-75
2022/09/08 05:59:16;;;;;;;8.77;4.30;;;23.50;94.20;;;;;;6305726;22;20462;-75
2022/09/08 06:01:42;;;;;;;5.10;3.80;;;23.60;93.70;;;;;;6305590;22;20045;-75
2022/09/08 06:04:08;;;;;;;6.20;2.97;;;23.60;93.90;;;;;;6305866;22;20434;-75
2022/09/08 06:06:35;;;;;;;8.63;4.50;;;23.60;93.90;;;;;;6305311;22;20350;-75
2022/09/08 06:09:03;;;;;;;4.80;2.70;;;23.70;93.60;;;;;;6306319;22;20365;-75
2022/09/08 06:11:31;;;;;;;5.72;3.10;;;23.70;93.80;;;;;;6305717;22;20003;-74
2022/09/08 06:13:57;;;;;;;5.78;2.90;;;23.70;94.00;;;;;;6278879;22;20029;-78
2022/09/08 06:16:23;;;;;;;10.32;3.38;;;23.70;94.20;;;;;;6305499;22;20039;-75
2022/09/08 06:18:50;;;;;;;13.73;3.25;;;23.70;94.00;;;;;;6278539;22;19999;-75
2022/09/08 06:21:24;;;;;;;9.50;3.63;;;23.70;93.70;;;;;;6305537;22;20334;-75
2022/09/08 06:23:55;;;;;;;5.85;3.28;;;23.70;93.80;;;;;;6305760;22;20045;-75
2022/09/08 06:26:42;;;;;;;7.95;3.80;;;23.80;93.80;;;;;;6305668;22;20026;-74
2022/09/08 06:29:29;;;;;;;6.50;3.85;;;23.90;94.00;;;;;;6278520;22;20339;-75
2022/09/08 06:32:13;;;;;;;11.30;4.70;;;24.00;94.10;;;;;;6305351;22;20006;-75
2022/09/08 06:34:47;;;;;;;29.58;8.40;;;24.20;94.20;;;;;;6305644;22;20509;-75
2022/09/08 06:37:27;;;;;;;11.40;6.78;;;24.30;94.40;;;;;;6278007;22;20458;-76
2022/09/08 06:40:04;;;;;;;10.50;5.90;;;24.40;94.30;;;;;;6305765;22;19995;-76
2022/09/08 06:42:40;;;;;;;13.48;6.90;;;24.50;94.40;;;;;;6276937;22;20010;-74
2022/09/08 06:45:15;;;;;;;31.45;12.07;;;24.60;94.50;;;;;;6304553;22;20033;-73
2022/09/08 06:47:49;;;;;;;6.30;4.25;;;24.60;94.60;;;;;;6275535;22;20003;-74
2022/09/08 06:50:16;;;;;;;7.05;4.03;;;24.70;94.60;;;;;;6276149;22;20223;-76
2022/09/08 06:52:47;;;;;;;5.57;3.72;;;24.60;94.50;;;;;;6303059;22;20003;-74
2022/09/08 06:55:48;;;;;;;7.40;4.78;;;24.70;94.50;;;;;;6275842;22;20213;-75
2022/09/08 06:58:32;;;;;;;6.35;4.15;;;24.90;94.60;;;;;;6303035;22;20414;-75
2022/09/08 07:01:03;;;;;;;6.05;3.83;;;25.00;94.90;;;;;;6304761;22;20027;-73
2022/09/08 07:03:39;;;;;;;13.23;4.40;;;25.20;94.90;;;;;;6305141;22;20360;-75
2022/09/08 07:06:10;;;;;;;14.20;4.40;;;25.50;94.80;;;;;;6278063;22;20007;-75
2022/09/08 07:08:48;;;;;;;11.25;4.25;;;25.70;94.60;;;;;;6305064;22;20010;-75
2022/09/08 07:11:40;;;;;;;16.92;4.70;;;25.90;94.40;;;;;;6305223;22;20091;-75
2022/09/08 07:14:32;;;;;;;30.38;5.82;;;26.00;94.40;;;;;;6278024;22;20034;-75
2022/09/08 07:17:17;;;;;;;5.57;4.40;;;25.90;94.50;;;;;;6304749;22;20056;-75
2022/09/08 07:19:43;;;;;;;6.75;4.40;;;25.80;94.80;;;;;;6277896;22;20158;-75
2022/09/08 07:22:31;;;;;;;7.38;4.43;;;25.70;95.10;;;;;;6304820;22;20078;-75
2022/09/08 07:25:07;;;;;;;11.43;5.07;;;25.60;95.40;;;;;;6305483;22;20056;-75
2022/09/08 07:27:34;;;;;;;7.55;4.40;;;25.60;95.40;;;;;;6304848;22;20389;-75
2022/09/08 07:30:03;;;;;;;7.25;4.28;;;25.60;95.50;;;;;;6305106;22;20003;-75
2022/09/08 07:32:35;;;;;;;8.50;4.68;;;25.60;95.70;;;;;;6304477;22;20003;-75
2022/09/08 07:35:24;;;;;;;;;;;25.70;95.70;;;;;;6305604;22;20427;-75
2022/09/08 07:37:54;;;;;;;10.20;4.53;;;25.70;95.40;;;;;;6233042;22;20000;-76
2022/09/08 07:40:40;;;;;;;7.00;4.60;;;25.70;95.60;;;;;;6305232;22;20003;-74
2022/09/08 07:43:14;;;;;;;7.28;4.40;;;25.80;95.60;;;;;;6277224;22;20010;-75
2022/09/08 07:46:07;;;;;;;6.90;4.65;;;26.00;95.40;;;;;;6277849;22;20070;-76
2022/09/08 07:49:00;;;;;;;6.20;4.32;;;26.10;95.40;;;;;;6261004;22;20344;-75
2022/09/08 07:51:36;;;;;;;8.00;4.00;;;26.20;95.20;;;;;;6257419;22;20003;-75
2022/09/08 07:54:16;;;;;;;9.98;4.40;;;26.40;95.30;;;;;;6305305;22;20074;-75
2022/09/08 07:56:48;;;;;;;9.18;4.10;;;26.50;95.30;;;;;;6302680;22;20442;-75
2022/09/08 07:59:13;;;;;;;7.23;5.03;;;26.70;95.40;;;;;;6273529;22;20085;-76
2022/09/08 08:01:55;;;;;;;12.68;4.88;;;26.90;95.00;;;;;;6302780;22;20031;-76
2022/09/08 08:04:41;;;;;;;7.60;4.38;;;27.10;94.70;;;;;;6303673;22;20471;-75
2022/09/08 08:07:14;;;;;;;6.07;4.15;;;27.20;94.50;;;;;;6304424;22;20006;-75
2022/09/08 08:10:07;;;;;;;5.45;4.40;;;27.30;94.10;;;;;;6277693;22;20000;-75
2022/09/08 08:12:57;;;;;;;8.77;4.78;;;27.40;93.90;;;;;;6257306;22;20029;-76
2022/09/08 08:26:09;;;;;;;7.50;4.93;;;27.60;93.50;;;;;;6305077;22;20030;-77
2022/09/08 08:28:42;;;;;;;9.70;5.05;;;27.80;93.30;;;;;;6305655;22;20003;-76
2022/09/08 08:31:27;;;;;;;5.30;4.78;;;28.10;93.20;;;;;;6306978;22;20346;-76
2022/09/08 08:34:24;;;;;;;13.77;5.18;;;28.20;93.20;;;;;;6306757;22;20015;-75
2022/09/08 08:36:53;;;;;;;7.53;5.05;;;28.30;93.00;;;;;;6305218;22;20396;-75
2022/09/08 08:39:22;;;;;;;6.80;4.63;;;28.40;93.10;;;;;;6306834;22;20414;-75
2022/09/08 08:42:06;;;;;;;5.80;4.50;;;28.50;93.00;;;;;;6306465;22;20113;-75
2022/09/08 08:45:01;;;;;;;10.02;4.65;;;28.80;92.90;;;;;;6306805;22;20003;-76
2022/09/08 08:47:35;;;;;;;12.13;5.07;;;28.90;92.20;;;;;;6306394;22;20004;-75
2022/09/08 08:50:29;;;;;;;9.40;4.88;;;29.00;92.10;;;;;;6279507;22;20027;-78
2022/09/08 08:53:10;;;;;;;8.48;4.93;;;29.10;92.40;;;;;;6278812;22;20007;-78
2022/09/08 08:55:48;;;;;;;11.70;5.00;;;29.20;92.40;;;;;;6306806;22;20446;-76
2022/09/08 08:58:42;;;;;;;6.53;4.53;;;29.10;92.60;;;;;;6306461;22;20544;-75
2022/09/08 09:01:25;;;;;;;8.07;4.68;;;29.00;92.70;;;;;;6306390;22;20446;-77
2022/09/08 09:04:11;;;;;;;11.73;4.85;;;28.80;92.90;;;;;;6306638;22;20315;-75
2022/09/08 09:06:53;;;;;;;11.82;5.13;;;28.60;93.30;;;;;;6306355;22;19999;-76
2022/09/08 09:10:10;;;;;;;6.63;5.10;;;28.30;93.60;;;;;;6279311;22;20007;-76
2022/09/08 09:13:09;;;;;;;8.55;5.18;;;28.00;94.10;;;;;;6228263;22;20033;-76
2022/09/08 09:16:00;;;;;;;10.65;5.18;;;27.70;94.50;;;;;;6306244;22;20015;-76
2022/09/08 09:18:29;;;;;;;14.23;5.50;;;27.40;94.90;;;;;;6306258;22;20464;-76
2022/09/08 09:20:57;;;;;;;11.98;5.80;;;27.20;95.40;;;;;;6306515;22;20000;-75
2022/09/08 09:23:29;;;;;;;16.67;5.40;;;27.00;95.60;;;;;;6306101;22;19995;-75
2022/09/08 09:26:00;;;;;;;50.40;7.93;;;26.80;96.10;;;;;;6278929;22;20420;-75
2022/09/08 09:28:32;;;;;;;13.73;3.97;;;25.90;98.60;;;;;;6306122;22;20031;-74
2022/09/08 09:31:31;;;;;;;25.95;6.47;;;24.50;99.90;;;;;;6306018;22;20003;-74
2022/09/08 09:34:26;;;;;;;55.22;10.63;;;23.20;99.90;;;;;;6305838;22;20019;-74
2022/09/08 09:37:10;;;;;;;56.88;10.25;;;22.40;99.90;;;;;;6278422;22;20015;-74
2022/09/08 09:39:49;;;;;;;41.90;7.72;;;21.80;99.90;;;;;;6306283;22;20068;-75
2022/09/08 09:42:50;;;;;;;24.75;5.05;;;21.50;99.90;;;;;;6305756;22;19999;-75
2022/09/08 09:45:51;;;;;;;29.65;5.78;;;21.00;99.90;;;;;;6181194;23;20039;-75
2022/09/08 09:48:25;;;;;;;24.10;5.05;;;20.70;99.90;;;;;;6305739;22;20033;-77
2022/09/08 09:51:02;;;;;;;9.98;3.05;;;20.50;99.90;;;;;;6306133;22;20052;-75
2022/09/08 09:53:31;;;;;;;7.13;2.42;;;20.40;99.90;;;;;;6306047;22;20376;-75
2022/09/08 09:56:13;;;;;;;10.63;3.00;;;20.40;99.90;;;;;;6305893;22;20008;-76
2022/09/08 09:59:12;;;;;;;7.38;2.40;;;20.50;99.90;;;;;;6305926;22;19995;-76
2022/09/08 10:01:38;;;;;;;9.73;1.90;;;20.50;99.90;;;;;;6258138;22;20007;-76
2022/09/08 10:04:24;;;;;;;8.18;2.83;;;20.40;99.90;;;;;;6305649;22;20034;-76
2022/09/08 10:07:09;;;;;;;7.20;2.45;;;20.40;99.90;;;;;;6305336;22;19999;-77
2022/09/08 10:10:06;;;;;;;8.00;2.40;;;20.50;99.90;;;;;;6306186;22;20070;-77
2022/09/08 10:12:57;;;;;;;6.00;2.22;;;20.70;99.90;;;;;;6278008;22;20011;-77
2022/09/08 10:15:36;;;;;;;4.80;1.67;;;20.80;99.90;;;;;;6274204;22;20517;-77
2022/09/08 10:18:20;;;;;;;3.60;1.50;;;20.90;99.90;;;;;;6301397;22;20033;-76
2022/09/08 10:21:10;;;;;;;4.97;1.70;;;20.80;99.90;;;;;;6301300;22;20549;-77
2022/09/08 10:24:20;;;;;;;2.72;1.58;;;20.80;99.90;;;;;;6301254;22;20083;-76
2022/09/08 10:27:13;;;;;;;3.65;2.10;;;20.80;99.90;;;;;;6268394;22;20410;-75
2022/09/08 10:30:07;;;;;;;28.85;3.70;;;20.80;99.90;;;;;;6273990;22;20011;-74
2022/09/08 10:32:42;;;;;;;108.38;7.50;;;20.70;99.90;;;;;;6300667;22;20018;-78
2022/09/08 10:35:30;;;;;;;14.05;4.85;;;19.80;99.90;;;;;;6301547;22;20010;-79
2022/09/08 10:38:28;;;;;;;20.23;7.05;;;19.30;99.90;;;;;;6273537;22;20062;-80
2022/09/08 10:40:57;;;;;;;12.68;5.82;;;19.30;99.90;;;;;;6273540;22;20080;-81
2022/09/08 10:43:37;;;;;;;16.48;8.63;;;19.50;99.90;;;;;;6302853;22;20003;-84
2022/09/08 10:46:46;;;;;;;17.15;8.38;;;19.70;99.90;;;;;;6305106;22;20003;-82
2022/09/08 10:49:39;;;;;;;19.55;10.27;;;19.40;99.90;;;;;;6278400;22;20007;-81
2022/09/08 10:52:30;;;;;;;29.00;10.82;;;19.30;99.90;;;;;;6306185;22;20060;-94
2022/09/08 10:55:27;;;;;;;36.85;14.00;;;19.40;99.90;;;;;;6309589;22;19995;-89
2022/09/08 10:58:30;;;;;;;17.02;9.30;;;19.40;99.90;;;;;;6242778;22;20503;-90
2022/09/08 11:01:15;;;;;;;18.55;8.82;;;19.30;99.90;;;;;;6281256;22;20004;-92
2022/09/08 11:03:43;;;;;;;15.23;8.50;;;19.20;99.90;;;;;;6274495;22;20445;-85
2022/09/08 11:06:43;;;;;;;14.20;7.32;;;19.00;99.90;;;;;;6274571;22;20011;-84
2022/09/08 11:09:23;;;;;;;16.20;7.82;;;19.00;99.90;;;;;;6301541;22;20010;-81
2022/09/08 11:12:08;;;;;;;44.78;13.40;;;19.00;99.90;;;;;;6302034;22;20582;-86
2022/09/08 11:14:52;;;;;;;28.08;11.88;;;19.10;99.90;;;;;;6302932;22;20450;-85
2022/09/08 11:17:24;;;;;;;23.55;9.90;;;19.20;99.90;;;;;;6275626;22;20011;-84
2022/09/08 11:19:56;;;;;;;27.25;10.13;;;19.20;99.90;;;;;;6276681;22;20006;-87
2022/09/08 11:22:33;;;;;;;26.77;10.52;;;19.30;99.90;;;;;;6275435;22;20010;-86
2022/09/08 11:25:10;;;;;;;22.30;10.77;;;19.50;99.90;;;;;;6303805;22;19999;-87
2022/09/08 11:27:42;;;;;;;43.78;14.80;;;19.60;99.90;;;;;;6276250;22;20011;-89
2022/09/08 11:30:12;;;;;;;20.45;10.75;;;19.70;99.90;;;;;;6303825;22;20022;-89
2022/09/08 11:33:10;;;;;;;13.02;7.55;;;19.70;99.90;;;;;;6301910;22;20019;-85
2022/09/08 11:35:56;;;;;;;29.73;11.45;;;19.60;99.90;;;;;;6276368;22;20544;-88
2022/09/08 11:38:52;;;;;;;26.05;11.43;;;19.60;99.90;;;;;;6303290;22;20017;-82
2022/09/08 11:41:32;;;;;;;18.48;10.50;;;19.60;99.90;;;;;;6281060;22;20438;-89
2022/09/08 11:44:00;;;;;;;28.73;14.43;;;19.70;99.90;;;;;;6275843;22;20014;-82
2022/09/08 11:46:42;;;;;;;42.97;16.05;;;19.80;99.90;;;;;;6300785;22;20009;-82
2022/09/08 11:49:20;;;;;;;23.60;9.35;;;19.90;99.90;;;;;;6302317;22;20007;-84
2022/09/08 11:52:04;;;;;;;205.30;19.35;;;19.70;99.90;;;;;;6300880;22;19999;-82
2022/09/08 11:54:36;;;;;;;506.42;38.67;;;19.30;99.90;;;;;;6300687;22;20010;-80
2022/09/08 11:57:40;;;;;;;325.15;26.33;;;19.00;99.90;;;;;;6300476;22;20015;-88
2022/09/08 12:00:21;;;;;;;71.95;16.75;;;18.80;99.90;;;;;;6300688;22;20014;-86
2022/09/08 12:03:05;;;;;;;121.60;21.90;;;18.70;99.90;;;;;;6300203;22;19999;-89
2022/09/08 12:05:57;;;;;;;92.45;21.35;;;18.90;99.90;;;;;;6274303;22;20014;-90
2022/09/08 12:08:48;;;;;;;49.58;13.82;;;19.00;99.90;;;;;;6273738;22;20007;-86
2022/09/08 12:11:36;;;;;;;155.38;24.90;;;19.10;99.90;;;;;;6300457;22;20003;-88
2022/09/08 12:14:17;;;;;;;82.15;20.63;;;19.20;99.90;;;;;;6300816;22;20260;-86
2022/09/08 12:16:43;;;;;;;92.32;23.83;;;19.30;99.90;;;;;;6300471;22;20068;-86
